< < Back
Terminal Aerodrome Forecast


Current Version              Previous Versions:   1  2  3  4  5  6  7  8  9  

Terminal Aerodrome Forecast

700
FTUS42 KCHS 272300
TAFSAV
TAF
KSAV 272321Z 2800/2824 32006KT P6SM FEW045
     FM281400 35009KT P6SM SCT250=

Latest METAR

667
SAUS80 KWBC 282200 RRB
MTRSAV
METAR KSAV 282153Z 32006KT 10SM FEW250 11/M08 A3027 RMK AO2 SLP251
T01111083


USA.gov is the U.S. government's official web portal to all federal, state and local government web resources and services.